sensor_id;sensor_type;location;lat;lon;timestamp;P1;durP1;ratioP1;P2;durP2;ratioP2
1320;SDS011;653;51.480;11.992;2023-08-20T00:00:09;11.00;;;8.27;;
1320;SDS011;653;51.480;11.992;2023-08-20T00:02:36;10.93;;;9.23;;
1320;SDS011;653;51.480;11.992;2023-08-20T00:05:02;9.57;;;8.57;;
1320;SDS011;653;51.480;11.992;2023-08-20T00:07:31;14.20;;;8.40;;
1320;SDS011;653;51.480;11.992;2023-08-20T00:09:57;10.50;;;8.47;;
1320;SDS011;653;51.480;11.992;2023-08-20T00:12:23;11.57;;;8.80;;
1320;SDS011;653;51.480;11.992;2023-08-20T00:14:55;12.70;;;8.67;;
1320;SDS011;653;51.480;11.992;2023-08-20T00:17:23;10.43;;;8.27;;
1320;SDS011;653;51.480;11.992;2023-08-20T00:19:49;8.67;;;7.77;;
1320;SDS011;653;51.480;11.992;2023-08-20T00:22:16;12.73;;;8.23;;
1320;SDS011;653;51.480;11.992;2023-08-20T00:24:42;13.73;;;8.67;;
1320;SDS011;653;51.480;11.992;2023-08-20T00:27:08;12.43;;;8.43;;
1320;SDS011;653;51.480;11.992;2023-08-20T00:29:33;8.40;;;7.40;;
1320;SDS011;653;51.480;11.992;2023-08-20T00:31:59;8.27;;;7.47;;
1320;SDS011;653;51.480;11.992;2023-08-20T00:34:24;16.43;;;10.20;;
1320;SDS011;653;51.480;11.992;2023-08-20T00:36:49;10.40;;;8.63;;
1320;SDS011;653;51.480;11.992;2023-08-20T00:39:15;11.27;;;9.00;;
1320;SDS011;653;51.480;11.992;2023-08-20T00:41:40;12.10;;;10.03;;
1320;SDS011;653;51.480;11.992;2023-08-20T00:44:06;11.40;;;10.30;;
1320;SDS011;653;51.480;11.992;2023-08-20T00:46:31;10.93;;;9.97;;
1320;SDS011;653;51.480;11.992;2023-08-20T00:48:57;13.80;;;11.07;;
1320;SDS011;653;51.480;11.992;2023-08-20T00:51:22;13.23;;;11.83;;
1320;SDS011;653;51.480;11.992;2023-08-20T00:53:48;14.93;;;11.90;;
1320;SDS011;653;51.480;11.992;2023-08-20T00:56:14;12.80;;;11.60;;
1320;SDS011;653;51.480;11.992;2023-08-20T00:58:40;13.97;;;12.63;;
1320;SDS011;653;51.480;11.992;2023-08-20T01:01:05;14.27;;;11.87;;
1320;SDS011;653;51.480;11.992;2023-08-20T01:03:31;14.13;;;12.30;;
1320;SDS011;653;51.480;11.992;2023-08-20T01:06:00;16.90;;;12.73;;
1320;SDS011;653;51.480;11.992;2023-08-20T01:08:39;15.30;;;12.97;;
1320;SDS011;653;51.480;11.992;2023-08-20T01:11:10;14.57;;;13.07;;
1320;SDS011;653;51.480;11.992;2023-08-20T01:13:38;13.50;;;12.10;;
1320;SDS011;653;51.480;11.992;2023-08-20T01:16:03;14.20;;;12.27;;
1320;SDS011;653;51.480;11.992;2023-08-20T01:18:28;14.07;;;12.47;;
1320;SDS011;653;51.480;11.992;2023-08-20T01:20:56;12.87;;;10.67;;
1320;SDS011;653;51.480;11.992;2023-08-20T01:23:25;12.30;;;11.10;;
1320;SDS011;653;51.480;11.992;2023-08-20T01:29:23;12.33;;;11.00;;
1320;SDS011;653;51.480;11.992;2023-08-20T01:31:50;15.90;;;11.30;;
1320;SDS011;653;51.480;11.992;2023-08-20T01:34:16;12.73;;;11.43;;
1320;SDS011;653;51.480;11.992;2023-08-20T01:36:42;13.03;;;11.83;;
1320;SDS011;653;51.480;11.992;2023-08-20T01:39:07;11.53;;;10.53;;
1320;SDS011;653;51.480;11.992;2023-08-20T01:41:33;12.70;;;10.80;;
1320;SDS011;653;51.480;11.992;2023-08-20T01:43:58;16.57;;;11.20;;
1320;SDS011;653;51.480;11.992;2023-08-20T01:46:24;14.30;;;11.80;;
1320;SDS011;653;51.480;11.992;2023-08-20T01:48:49;11.80;;;10.60;;
1320;SDS011;653;51.480;11.992;2023-08-20T01:51:15;11.60;;;10.50;;
1320;SDS011;653;51.480;11.992;2023-08-20T01:53:40;13.27;;;11.97;;
1320;SDS011;653;51.480;11.992;2023-08-20T01:56:10;14.17;;;12.67;;
1320;SDS011;653;51.480;11.992;2023-08-20T01:58:36;13.00;;;11.80;;
1320;SDS011;653;51.480;11.992;2023-08-20T02:01:02;18.50;;;14.97;;
1320;SDS011;653;51.480;11.992;2023-08-20T02:03:27;16.53;;;12.93;;
1320;SDS011;653;51.480;11.992;2023-08-20T02:05:52;16.00;;;14.50;;
1320;SDS011;653;51.480;11.992;2023-08-20T02:08:18;15.00;;;13.40;;
1320;SDS011;653;51.480;11.992;2023-08-20T02:10:43;15.67;;;14.00;;
1320;SDS011;653;51.480;11.992;2023-08-20T02:13:08;16.23;;;14.80;;
1320;SDS011;653;51.480;11.992;2023-08-20T02:15:34;14.90;;;12.93;;
1320;SDS011;653;51.480;11.992;2023-08-20T02:17:59;15.80;;;14.20;;
1320;SDS011;653;51.480;11.992;2023-08-20T02:20:26;19.10;;;14.80;;
1320;SDS011;653;51.480;11.992;2023-08-20T02:22:51;17.87;;;15.97;;
1320;SDS011;653;51.480;11.992;2023-08-20T02:25:17;16.67;;;14.90;;
1320;SDS011;653;51.480;11.992;2023-08-20T02:27:42;18.83;;;16.93;;
1320;SDS011;653;51.480;11.992;2023-08-20T02:30:08;19.57;;;17.60;;
1320;SDS011;653;51.480;11.992;2023-08-20T02:32:33;18.50;;;16.70;;
1320;SDS011;653;51.480;11.992;2023-08-20T02:34:58;20.50;;;18.30;;
1320;SDS011;653;51.480;11.992;2023-08-20T02:37:24;21.57;;;19.57;;
1320;SDS011;653;51.480;11.992;2023-08-20T02:39:49;21.30;;;19.03;;
1320;SDS011;653;51.480;11.992;2023-08-20T02:42:15;22.87;;;20.17;;
1320;SDS011;653;51.480;11.992;2023-08-20T02:44:40;24.87;;;20.97;;
1320;SDS011;653;51.480;11.992;2023-08-20T02:47:05;24.50;;;22.00;;
1320;SDS011;653;51.480;11.992;2023-08-20T02:49:31;22.77;;;20.40;;
1320;SDS011;653;51.480;11.992;2023-08-20T02:51:56;26.70;;;23.50;;
1320;SDS011;653;51.480;11.992;2023-08-20T02:54:21;25.00;;;22.47;;
1320;SDS011;653;51.480;11.992;2023-08-20T02:56:47;24.53;;;22.10;;
1320;SDS011;653;51.480;11.992;2023-08-20T02:59:13;26.00;;;22.50;;
1320;SDS011;653;51.480;11.992;2023-08-20T03:01:38;24.67;;;22.30;;
1320;SDS011;653;51.480;11.992;2023-08-20T03:04:04;27.50;;;24.80;;
1320;SDS011;653;51.480;11.992;2023-08-20T03:06:30;27.80;;;24.00;;
1320;SDS011;653;51.480;11.992;2023-08-20T03:08:55;27.03;;;24.33;;
1320;SDS011;653;51.480;11.992;2023-08-20T03:11:21;26.10;;;23.40;;
1320;SDS011;653;51.480;11.992;2023-08-20T03:13:46;27.23;;;24.27;;
1320;SDS011;653;51.480;11.992;2023-08-20T03:16:11;30.07;;;26.10;;
1320;SDS011;653;51.480;11.992;2023-08-20T03:18:37;28.47;;;25.50;;
1320;SDS011;653;51.480;11.992;2023-08-20T03:21:02;30.17;;;25.63;;
1320;SDS011;653;51.480;11.992;2023-08-20T03:23:31;27.60;;;24.70;;
1320;SDS011;653;51.480;11.992;2023-08-20T03:25:59;28.13;;;25.30;;
1320;SDS011;653;51.480;11.992;2023-08-20T03:28:25;27.00;;;24.17;;
1320;SDS011;653;51.480;11.992;2023-08-20T03:30:50;31.50;;;26.63;;
1320;SDS011;653;51.480;11.992;2023-08-20T03:33:15;31.30;;;27.47;;
1320;SDS011;653;51.480;11.992;2023-08-20T03:35:45;30.57;;;27.37;;
1320;SDS011;653;51.480;11.992;2023-08-20T03:38:11;33.23;;;29.70;;
1320;SDS011;653;51.480;11.992;2023-08-20T03:40:36;35.97;;;32.00;;
1320;SDS011;653;51.480;11.992;2023-08-20T03:43:02;36.93;;;31.50;;
1320;SDS011;653;51.480;11.992;2023-08-20T03:45:27;37.43;;;32.33;;
1320;SDS011;653;51.480;11.992;2023-08-20T03:47:55;37.90;;;33.90;;
1320;SDS011;653;51.480;11.992;2023-08-20T03:50:20;42.33;;;35.33;;
1320;SDS011;653;51.480;11.992;2023-08-20T03:52:45;38.60;;;34.77;;
1320;SDS011;653;51.480;11.992;2023-08-20T03:55:11;42.60;;;38.17;;
1320;SDS011;653;51.480;11.992;2023-08-20T03:57:36;40.20;;;36.00;;
1320;SDS011;653;51.480;11.992;2023-08-20T04:00:02;39.13;;;35.13;;
1320;SDS011;653;51.480;11.992;2023-08-20T04:02:28;40.03;;;35.60;;
1320;SDS011;653;51.480;11.992;2023-08-20T04:04:54;39.27;;;34.63;;
1320;SDS011;653;51.480;11.992;2023-08-20T04:07:19;40.57;;;34.50;;
1320;SDS011;653;51.480;11.992;2023-08-20T04:09:44;37.23;;;32.97;;
1320;SDS011;653;51.480;11.992;2023-08-20T04:12:10;38.03;;;33.93;;
1320;SDS011;653;51.480;11.992;2023-08-20T04:14:36;39.10;;;35.03;;
1320;SDS011;653;51.480;11.992;2023-08-20T04:17:01;33.33;;;30.00;;
1320;SDS011;653;51.480;11.992;2023-08-20T04:19:27;33.60;;;30.10;;
1320;SDS011;653;51.480;11.992;2023-08-20T04:21:52;36.20;;;30.60;;
1320;SDS011;653;51.480;11.992;2023-08-20T04:24:17;35.40;;;31.47;;
1320;SDS011;653;51.480;11.992;2023-08-20T04:26:43;36.73;;;32.70;;
1320;SDS011;653;51.480;11.992;2023-08-20T04:29:09;33.87;;;29.93;;
1320;SDS011;653;51.480;11.992;2023-08-20T04:31:34;33.93;;;29.70;;
1320;SDS011;653;51.480;11.992;2023-08-20T04:33:59;33.97;;;30.37;;
1320;SDS011;653;51.480;11.992;2023-08-20T04:36:25;36.40;;;32.60;;
1320;SDS011;653;51.480;11.992;2023-08-20T04:38:50;34.67;;;31.03;;
1320;SDS011;653;51.480;11.992;2023-08-20T04:41:15;37.47;;;33.30;;
1320;SDS011;653;51.480;11.992;2023-08-20T04:43:41;34.20;;;30.70;;
1320;SDS011;653;51.480;11.992;2023-08-20T04:46:06;34.47;;;30.70;;
1320;SDS011;653;51.480;11.992;2023-08-20T04:48:31;34.10;;;30.27;;
1320;SDS011;653;51.480;11.992;2023-08-20T04:50:57;34.67;;;30.97;;
1320;SDS011;653;51.480;11.992;2023-08-20T04:53:23;37.30;;;32.10;;
1320;SDS011;653;51.480;11.992;2023-08-20T04:55:49;35.93;;;31.70;;
1320;SDS011;653;51.480;11.992;2023-08-20T04:58:14;34.03;;;30.43;;
1320;SDS011;653;51.480;11.992;2023-08-20T05:00:39;36.90;;;29.40;;
1320;SDS011;653;51.480;11.992;2023-08-20T05:03:05;35.40;;;30.63;;
1320;SDS011;653;51.480;11.992;2023-08-20T05:05:30;31.60;;;27.90;;
1320;SDS011;653;51.480;11.992;2023-08-20T05:07:56;36.13;;;30.07;;
1320;SDS011;653;51.480;11.992;2023-08-20T05:10:21;33.80;;;28.90;;
1320;SDS011;653;51.480;11.992;2023-08-20T05:12:46;32.97;;;28.13;;
1320;SDS011;653;51.480;11.992;2023-08-20T05:15:12;30.67;;;27.37;;
1320;SDS011;653;51.480;11.992;2023-08-20T05:17:37;29.87;;;26.67;;
1320;SDS011;653;51.480;11.992;2023-08-20T05:20:03;30.80;;;27.33;;
1320;SDS011;653;51.480;11.992;2023-08-20T05:22:28;32.93;;;29.00;;
1320;SDS011;653;51.480;11.992;2023-08-20T05:24:54;30.43;;;26.57;;
1320;SDS011;653;51.480;11.992;2023-08-20T05:27:19;32.77;;;29.27;;
1320;SDS011;653;51.480;11.992;2023-08-20T05:29:45;31.07;;;27.00;;
1320;SDS011;653;51.480;11.992;2023-08-20T05:32:10;38.30;;;28.70;;
1320;SDS011;653;51.480;11.992;2023-08-20T05:34:36;29.17;;;25.97;;
1320;SDS011;653;51.480;11.992;2023-08-20T05:37:01;29.50;;;26.40;;
1320;SDS011;653;51.480;11.992;2023-08-20T05:39:29;29.20;;;26.20;;
1320;SDS011;653;51.480;11.992;2023-08-20T05:41:55;30.80;;;27.50;;
1320;SDS011;653;51.480;11.992;2023-08-20T05:44:24;28.20;;;25.17;;
1320;SDS011;653;51.480;11.992;2023-08-20T05:46:49;29.20;;;26.03;;
1320;SDS011;653;51.480;11.992;2023-08-20T05:49:14;31.17;;;27.97;;
1320;SDS011;653;51.480;11.992;2023-08-20T05:51:44;28.30;;;25.40;;
1320;SDS011;653;51.480;11.992;2023-08-20T05:54:10;29.07;;;26.07;;
1320;SDS011;653;51.480;11.992;2023-08-20T05:56:36;31.17;;;27.67;;
1320;SDS011;653;51.480;11.992;2023-08-20T05:59:01;27.53;;;24.73;;
1320;SDS011;653;51.480;11.992;2023-08-20T06:01:27;28.10;;;24.97;;
1320;SDS011;653;51.480;11.992;2023-08-20T06:03:52;29.00;;;26.07;;
1320;SDS011;653;51.480;11.992;2023-08-20T06:06:17;27.20;;;24.30;;
1320;SDS011;653;51.480;11.992;2023-08-20T06:08:43;27.43;;;24.63;;
1320;SDS011;653;51.480;11.992;2023-08-20T06:11:08;27.17;;;24.30;;
1320;SDS011;653;51.480;11.992;2023-08-20T06:13:33;27.60;;;24.90;;
1320;SDS011;653;51.480;11.992;2023-08-20T06:15:59;26.03;;;23.30;;
1320;SDS011;653;51.480;11.992;2023-08-20T06:18:24;25.77;;;23.13;;
1320;SDS011;653;51.480;11.992;2023-08-20T06:20:49;25.37;;;22.77;;
1320;SDS011;653;51.480;11.992;2023-08-20T06:23:15;23.67;;;21.20;;
1320;SDS011;653;51.480;11.992;2023-08-20T06:25:40;26.33;;;21.80;;
1320;SDS011;653;51.480;11.992;2023-08-20T06:28:05;24.20;;;21.33;;
1320;SDS011;653;51.480;11.992;2023-08-20T06:30:31;24.87;;;22.40;;
1320;SDS011;653;51.480;11.992;2023-08-20T06:32:56;24.40;;;21.90;;
1320;SDS011;653;51.480;11.992;2023-08-20T06:35:21;26.27;;;21.90;;
1320;SDS011;653;51.480;11.992;2023-08-20T06:37:47;24.50;;;22.10;;
1320;SDS011;653;51.480;11.992;2023-08-20T06:40:12;23.67;;;21.27;;
1320;SDS011;653;51.480;11.992;2023-08-20T06:42:39;22.87;;;18.90;;
1320;SDS011;653;51.480;11.992;2023-08-20T06:45:04;26.70;;;21.87;;
1320;SDS011;653;51.480;11.992;2023-08-20T06:47:30;24.93;;;22.33;;
1320;SDS011;653;51.480;11.992;2023-08-20T06:49:56;24.73;;;22.20;;
1320;SDS011;653;51.480;11.992;2023-08-20T06:52:21;26.57;;;23.67;;
1320;SDS011;653;51.480;11.992;2023-08-20T06:54:46;26.13;;;23.37;;
1320;SDS011;653;51.480;11.992;2023-08-20T06:57:12;25.67;;;23.07;;
1320;SDS011;653;51.480;11.992;2023-08-20T06:59:37;24.07;;;21.77;;
1320;SDS011;653;51.480;11.992;2023-08-20T07:02:03;23.77;;;21.37;;
1320;SDS011;653;51.480;11.992;2023-08-20T07:04:29;23.53;;;21.13;;
1320;SDS011;653;51.480;11.992;2023-08-20T07:06:54;24.27;;;20.80;;
1320;SDS011;653;51.480;11.992;2023-08-20T07:09:20;21.37;;;19.30;;
1320;SDS011;653;51.480;11.992;2023-08-20T07:11:45;21.93;;;19.50;;
1320;SDS011;653;51.480;11.992;2023-08-20T07:14:10;21.27;;;19.07;;
1320;SDS011;653;51.480;11.992;2023-08-20T07:16:38;21.83;;;19.53;;
1320;SDS011;653;51.480;11.992;2023-08-20T07:19:04;21.07;;;19.00;;
1320;SDS011;653;51.480;11.992;2023-08-20T07:21:30;22.30;;;20.17;;
1320;SDS011;653;51.480;11.992;2023-08-20T07:23:55;22.23;;;20.07;;
1320;SDS011;653;51.480;11.992;2023-08-20T07:26:21;21.10;;;19.10;;
1320;SDS011;653;51.480;11.992;2023-08-20T07:28:46;22.50;;;20.17;;
1320;SDS011;653;51.480;11.992;2023-08-20T07:33:50;17.23;;;15.50;;
1320;SDS011;653;51.480;11.992;2023-08-20T07:36:17;16.83;;;14.93;;
1320;SDS011;653;51.480;11.992;2023-08-20T07:38:47;15.67;;;14.17;;
1320;SDS011;653;51.480;11.992;2023-08-20T07:41:12;17.07;;;15.47;;
1320;SDS011;653;51.480;11.992;2023-08-20T07:43:38;15.53;;;13.90;;
1320;SDS011;653;51.480;11.992;2023-08-20T07:46:04;15.97;;;14.37;;
1320;SDS011;653;51.480;11.992;2023-08-20T07:48:29;17.93;;;16.07;;
1320;SDS011;653;51.480;11.992;2023-08-20T07:50:55;16.80;;;15.07;;
1320;SDS011;653;51.480;11.992;2023-08-20T07:53:20;16.27;;;14.77;;
1320;SDS011;653;51.480;11.992;2023-08-20T07:55:45;16.70;;;14.90;;
1320;SDS011;653;51.480;11.992;2023-08-20T07:58:11;17.13;;;15.17;;
1320;SDS011;653;51.480;11.992;2023-08-20T08:00:36;15.43;;;14.00;;
1320;SDS011;653;51.480;11.992;2023-08-20T08:03:01;15.47;;;13.97;;
1320;SDS011;653;51.480;11.992;2023-08-20T08:05:28;15.60;;;14.00;;
1320;SDS011;653;51.480;11.992;2023-08-20T08:07:53;15.90;;;14.00;;
1320;SDS011;653;51.480;11.992;2023-08-20T08:10:19;16.47;;;14.90;;
1320;SDS011;653;51.480;11.992;2023-08-20T08:12:45;16.87;;;15.27;;
1320;SDS011;653;51.480;11.992;2023-08-20T08:15:11;17.57;;;15.77;;
1320;SDS011;653;51.480;11.992;2023-08-20T08:17:37;22.10;;;15.93;;
1320;SDS011;653;51.480;11.992;2023-08-20T08:20:02;17.80;;;16.07;;
1320;SDS011;653;51.480;11.992;2023-08-20T08:22:28;18.73;;;17.00;;
1320;SDS011;653;51.480;11.992;2023-08-20T08:24:54;18.83;;;17.13;;
1320;SDS011;653;51.480;11.992;2023-08-20T08:27:19;18.30;;;16.60;;
1320;SDS011;653;51.480;11.992;2023-08-20T08:29:45;18.30;;;16.70;;
1320;SDS011;653;51.480;11.992;2023-08-20T08:32:10;18.20;;;16.50;;
1320;SDS011;653;51.480;11.992;2023-08-20T08:34:36;18.00;;;16.20;;
1320;SDS011;653;51.480;11.992;2023-08-20T08:37:01;17.50;;;15.80;;
1320;SDS011;653;51.480;11.992;2023-08-20T08:39:27;17.57;;;15.93;;
1320;SDS011;653;51.480;11.992;2023-08-20T08:41:54;16.37;;;14.77;;
1320;SDS011;653;51.480;11.992;2023-08-20T08:44:27;15.90;;;14.50;;
1320;SDS011;653;51.480;11.992;2023-08-20T08:46:53;16.17;;;14.67;;
1320;SDS011;653;51.480;11.992;2023-08-20T08:49:19;15.87;;;14.17;;
1320;SDS011;653;51.480;11.992;2023-08-20T08:51:45;14.60;;;13.20;;
1320;SDS011;653;51.480;11.992;2023-08-20T08:54:12;13.00;;;11.87;;
1320;SDS011;653;51.480;11.992;2023-08-20T08:56:39;13.97;;;12.67;;
1320;SDS011;653;51.480;11.992;2023-08-20T08:59:04;14.37;;;13.10;;
1320;SDS011;653;51.480;11.992;2023-08-20T09:01:30;12.07;;;10.87;;
1320;SDS011;653;51.480;11.992;2023-08-20T09:03:56;13.20;;;12.10;;
1320;SDS011;653;51.480;11.992;2023-08-20T09:06:22;15.10;;;12.27;;
1320;SDS011;653;51.480;11.992;2023-08-20T09:08:47;13.40;;;12.07;;
1320;SDS011;653;51.480;11.992;2023-08-20T09:11:12;13.37;;;12.10;;
1320;SDS011;653;51.480;11.992;2023-08-20T09:13:39;13.20;;;11.97;;
1320;SDS011;653;51.480;11.992;2023-08-20T09:18:38;13.83;;;12.53;;
1320;SDS011;653;51.480;11.992;2023-08-20T09:21:09;15.40;;;14.07;;
1320;SDS011;653;51.480;11.992;2023-08-20T09:23:35;14.07;;;12.87;;
1320;SDS011;653;51.480;11.992;2023-08-20T09:26:02;14.13;;;12.93;;
1320;SDS011;653;51.480;11.992;2023-08-20T09:28:28;14.00;;;12.80;;
1320;SDS011;653;51.480;11.992;2023-08-20T09:30:56;15.10;;;13.53;;
1320;SDS011;653;51.480;11.992;2023-08-20T09:33:26;14.43;;;13.13;;
1320;SDS011;653;51.480;11.992;2023-08-20T09:35:53;12.47;;;11.37;;
1320;SDS011;653;51.480;11.992;2023-08-20T09:38:20;13.10;;;11.80;;
1320;SDS011;653;51.480;11.992;2023-08-20T09:40:50;13.30;;;12.00;;
1320;SDS011;653;51.480;11.992;2023-08-20T09:43:18;11.73;;;10.63;;
1320;SDS011;653;51.480;11.992;2023-08-20T09:45:43;11.60;;;10.70;;
1320;SDS011;653;51.480;11.992;2023-08-20T09:48:11;10.90;;;9.90;;
1320;SDS011;653;51.480;11.992;2023-08-20T09:50:38;14.00;;;12.33;;
1320;SDS011;653;51.480;11.992;2023-08-20T09:53:06;12.93;;;11.73;;
1320;SDS011;653;51.480;11.992;2023-08-20T09:55:38;12.60;;;11.30;;
1320;SDS011;653;51.480;11.992;2023-08-20T09:58:04;15.87;;;13.10;;
1320;SDS011;653;51.480;11.992;2023-08-20T10:00:37;11.40;;;10.30;;
1320;SDS011;653;51.480;11.992;2023-08-20T10:03:03;11.63;;;10.47;;
1320;SDS011;653;51.480;11.992;2023-08-20T10:05:29;12.50;;;11.40;;
1320;SDS011;653;51.480;11.992;2023-08-20T10:07:55;12.33;;;11.13;;
1320;SDS011;653;51.480;11.992;2023-08-20T10:10:20;12.20;;;11.13;;
1320;SDS011;653;51.480;11.992;2023-08-20T10:12:46;11.37;;;10.33;;
1320;SDS011;653;51.480;11.992;2023-08-20T10:15:13;11.83;;;10.63;;
1320;SDS011;653;51.480;11.992;2023-08-20T10:17:44;11.90;;;10.90;;
1320;SDS011;653;51.480;11.992;2023-08-20T10:20:10;12.17;;;10.97;;
1320;SDS011;653;51.480;11.992;2023-08-20T10:22:42;11.93;;;10.83;;
1320;SDS011;653;51.480;11.992;2023-08-20T10:25:10;11.07;;;10.07;;
1320;SDS011;653;51.480;11.992;2023-08-20T10:27:40;11.00;;;10.00;;
1320;SDS011;653;51.480;11.992;2023-08-20T10:30:08;11.50;;;10.50;;
1320;SDS011;653;51.480;11.992;2023-08-20T10:32:47;10.37;;;9.47;;
1320;SDS011;653;51.480;11.992;2023-08-20T10:35:15;11.00;;;9.87;;
1320;SDS011;653;51.480;11.992;2023-08-20T10:38:02;10.97;;;10.00;;
1320;SDS011;653;51.480;11.992;2023-08-20T10:41:02;12.53;;;11.27;;
1320;SDS011;653;51.480;11.992;2023-08-20T10:43:28;12.30;;;11.20;;
1320;SDS011;653;51.480;11.992;2023-08-20T10:46:04;13.27;;;11.90;;
1320;SDS011;653;51.480;11.992;2023-08-20T10:48:43;11.60;;;10.43;;
1320;SDS011;653;51.480;11.992;2023-08-20T10:51:15;10.43;;;9.50;;
1320;SDS011;653;51.480;11.992;2023-08-20T10:53:47;11.80;;;10.60;;
1320;SDS011;653;51.480;11.992;2023-08-20T10:56:15;12.83;;;11.53;;
1320;SDS011;653;51.480;11.992;2023-08-20T10:58:42;11.07;;;10.07;;
1320;SDS011;653;51.480;11.992;2023-08-20T11:01:12;11.40;;;10.43;;
1320;SDS011;653;51.480;11.992;2023-08-20T11:03:43;12.17;;;11.10;;
1320;SDS011;653;51.480;11.992;2023-08-20T11:06:10;11.27;;;10.37;;
1320;SDS011;653;51.480;11.992;2023-08-20T11:08:36;11.80;;;10.80;;
1320;SDS011;653;51.480;11.992;2023-08-20T11:11:03;11.93;;;11.03;;
1320;SDS011;653;51.480;11.992;2023-08-20T11:13:31;13.87;;;12.47;;
1320;SDS011;653;51.480;11.992;2023-08-20T11:15:58;12.48;;;11.48;;
1320;SDS011;653;51.480;11.992;2023-08-20T11:18:24;13.20;;;12.07;;
1320;SDS011;653;51.480;11.992;2023-08-20T11:20:50;13.07;;;11.88;;
1320;SDS011;653;51.480;11.992;2023-08-20T11:23:15;11.35;;;10.27;;
1320;SDS011;653;51.480;11.992;2023-08-20T11:25:42;12.38;;;11.25;;
1320;SDS011;653;51.480;11.992;2023-08-20T11:28:08;11.43;;;10.60;;
1320;SDS011;653;51.480;11.992;2023-08-20T11:30:34;13.43;;;12.32;;
1320;SDS011;653;51.480;11.992;2023-08-20T11:33:00;13.40;;;12.25;;
1320;SDS011;653;51.480;11.992;2023-08-20T11:35:25;12.50;;;11.50;;
1320;SDS011;653;51.480;11.992;2023-08-20T11:37:51;13.93;;;12.63;;
1320;SDS011;653;51.480;11.992;2023-08-20T11:40:19;13.97;;;12.77;;
1320;SDS011;653;51.480;11.992;2023-08-20T11:42:45;14.80;;;13.60;;
1320;SDS011;653;51.480;11.992;2023-08-20T11:45:11;14.63;;;13.50;;
1320;SDS011;653;51.480;11.992;2023-08-20T11:47:40;13.90;;;12.60;;
1320;SDS011;653;51.480;11.992;2023-08-20T11:50:06;14.20;;;12.90;;
1320;SDS011;653;51.480;11.992;2023-08-20T11:52:32;14.50;;;13.27;;
1320;SDS011;653;51.480;11.992;2023-08-20T11:54:58;13.57;;;12.37;;
1320;SDS011;653;51.480;11.992;2023-08-20T11:57:25;14.67;;;13.27;;
1320;SDS011;653;51.480;11.992;2023-08-20T11:59:51;14.30;;;13.00;;
1320;SDS011;653;51.480;11.992;2023-08-20T12:02:24;14.93;;;13.52;;
1320;SDS011;653;51.480;11.992;2023-08-20T12:04:50;14.20;;;12.80;;
1320;SDS011;653;51.480;11.992;2023-08-20T12:07:16;14.80;;;13.50;;
1320;SDS011;653;51.480;11.992;2023-08-20T12:09:41;14.97;;;13.77;;
1320;SDS011;653;51.480;11.992;2023-08-20T12:12:07;13.90;;;12.80;;
1320;SDS011;653;51.480;11.992;2023-08-20T12:14:33;14.87;;;13.67;;
1320;SDS011;653;51.480;11.992;2023-08-20T12:16:59;15.60;;;14.13;;
1320;SDS011;653;51.480;11.992;2023-08-20T12:19:24;15.70;;;14.50;;
1320;SDS011;653;51.480;11.992;2023-08-20T12:21:50;15.27;;;13.77;;
1320;SDS011;653;51.480;11.992;2023-08-20T12:24:16;15.45;;;14.05;;
1320;SDS011;653;51.480;11.992;2023-08-20T12:26:42;15.13;;;13.90;;
1320;SDS011;653;51.480;11.992;2023-08-20T12:29:08;15.30;;;14.10;;
1320;SDS011;653;51.480;11.992;2023-08-20T12:31:33;15.25;;;13.88;;
1320;SDS011;653;51.480;11.992;2023-08-20T12:33:59;14.57;;;13.45;;
1320;SDS011;653;51.480;11.992;2023-08-20T12:36:25;15.65;;;14.35;;
1320;SDS011;653;51.480;11.992;2023-08-20T12:38:51;14.07;;;12.95;;
1320;SDS011;653;51.480;11.992;2023-08-20T12:41:16;14.65;;;13.55;;
1320;SDS011;653;51.480;11.992;2023-08-20T12:43:42;15.02;;;13.85;;
1320;SDS011;653;51.480;11.992;2023-08-20T12:46:07;14.90;;;13.70;;
1320;SDS011;653;51.480;11.992;2023-08-20T12:48:32;13.95;;;12.85;;
1320;SDS011;653;51.480;11.992;2023-08-20T12:50:58;14.88;;;13.50;;
1320;SDS011;653;51.480;11.992;2023-08-20T12:53:23;14.77;;;13.48;;
1320;SDS011;653;51.480;11.992;2023-08-20T12:55:49;14.18;;;12.82;;
1320;SDS011;653;51.480;11.992;2023-08-20T12:58:14;13.68;;;12.65;;
1320;SDS011;653;51.480;11.992;2023-08-20T13:00:39;14.00;;;12.90;;
1320;SDS011;653;51.480;11.992;2023-08-20T13:03:05;14.07;;;12.88;;
1320;SDS011;653;51.480;11.992;2023-08-20T13:05:31;13.98;;;12.88;;
1320;SDS011;653;51.480;11.992;2023-08-20T13:07:57;14.32;;;13.25;;
1320;SDS011;653;51.480;11.992;2023-08-20T13:10:23;13.77;;;12.57;;
1320;SDS011;653;51.480;11.992;2023-08-20T13:12:52;14.35;;;13.05;;
1320;SDS011;653;51.480;11.992;2023-08-20T13:15:19;12.95;;;11.75;;
1320;SDS011;653;51.480;11.992;2023-08-20T13:17:46;14.25;;;12.88;;
1320;SDS011;653;51.480;11.992;2023-08-20T13:20:13;13.95;;;12.65;;
1320;SDS011;653;51.480;11.992;2023-08-20T13:22:39;14.50;;;11.73;;
1320;SDS011;653;51.480;11.992;2023-08-20T13:25:05;12.75;;;11.68;;
1320;SDS011;653;51.480;11.992;2023-08-20T13:27:31;10.82;;;10.02;;
1320;SDS011;653;51.480;11.992;2023-08-20T13:29:56;10.90;;;10.10;;
1320;SDS011;653;51.480;11.992;2023-08-20T13:32:22;11.45;;;10.55;;
1320;SDS011;653;51.480;11.992;2023-08-20T13:34:48;11.05;;;10.13;;
1320;SDS011;653;51.480;11.992;2023-08-20T13:37:14;10.60;;;9.60;;
1320;SDS011;653;51.480;11.992;2023-08-20T13:39:39;11.77;;;10.77;;
1320;SDS011;653;51.480;11.992;2023-08-20T13:42:05;10.32;;;9.52;;
1320;SDS011;653;51.480;11.992;2023-08-20T13:44:30;11.70;;;10.63;;
1320;SDS011;653;51.480;11.992;2023-08-20T13:46:56;10.60;;;9.77;;
1320;SDS011;653;51.480;11.992;2023-08-20T13:49:21;10.52;;;9.60;;
1320;SDS011;653;51.480;11.992;2023-08-20T13:51:46;10.10;;;9.40;;
1320;SDS011;653;51.480;11.992;2023-08-20T13:54:12;12.35;;;10.30;;
1320;SDS011;653;51.480;11.992;2023-08-20T13:56:37;10.85;;;9.95;;
1320;SDS011;653;51.480;11.992;2023-08-20T13:59:02;10.13;;;9.23;;
1320;SDS011;653;51.480;11.992;2023-08-20T14:01:28;10.55;;;9.65;;
1320;SDS011;653;51.480;11.992;2023-08-20T14:03:53;10.52;;;9.65;;
1320;SDS011;653;51.480;11.992;2023-08-20T14:06:19;9.98;;;9.25;;
1320;SDS011;653;51.480;11.992;2023-08-20T14:08:44;11.13;;;9.40;;
1320;SDS011;653;51.480;11.992;2023-08-20T14:11:10;9.95;;;9.25;;
1320;SDS011;653;51.480;11.992;2023-08-20T14:13:35;13.27;;;10.13;;
1320;SDS011;653;51.480;11.992;2023-08-20T14:16:01;10.60;;;9.80;;
1320;SDS011;653;51.480;11.992;2023-08-20T14:18:27;11.07;;;10.18;;
1320;SDS011;653;51.480;11.992;2023-08-20T14:20:53;10.98;;;10.07;;
1320;SDS011;653;51.480;11.992;2023-08-20T14:23:19;10.82;;;9.93;;
1320;SDS011;653;51.480;11.992;2023-08-20T14:25:45;10.20;;;9.40;;
1320;SDS011;653;51.480;11.992;2023-08-20T14:28:10;11.73;;;10.70;;
1320;SDS011;653;51.480;11.992;2023-08-20T14:30:39;11.50;;;10.52;;
1320;SDS011;653;51.480;11.992;2023-08-20T14:33:06;10.77;;;9.77;;
1320;SDS011;653;51.480;11.992;2023-08-20T14:35:32;10.50;;;9.70;;
1320;SDS011;653;51.480;11.992;2023-08-20T14:37:58;10.02;;;9.13;;
1320;SDS011;653;51.480;11.992;2023-08-20T14:40:24;9.50;;;8.73;;
1320;SDS011;653;51.480;11.992;2023-08-20T14:42:50;9.73;;;9.00;;
1320;SDS011;653;51.480;11.992;2023-08-20T14:45:15;9.27;;;8.32;;
1320;SDS011;653;51.480;11.992;2023-08-20T14:47:41;11.25;;;10.25;;
1320;SDS011;653;51.480;11.992;2023-08-20T14:50:07;11.15;;;10.25;;
1320;SDS011;653;51.480;11.992;2023-08-20T14:52:33;10.63;;;9.82;;